Terminal Aerodrome Forecast
Issued by NWS Central Illinois

Home | Current Version | Previous Version | Text Only | Print | Product List | Glossary On
Versions: 1 2 3 4 5 6 7 8 9 10 11 12 13 14 15 16 17 18 19 20 21 22 23 24 25 26 27
969
FTUS43 KILX 221146
TAFSPI
TAF
KSPI 221146Z 2212/2312 05011KT 4SM -FZRA BR OVC006
      TEMPO 2212/2214 2SM -FZRA BR OVC009
     FM221400 07010KT 6SM BR VCSH OVC008
     FM221700 09010KT P6SM OVC015
     FM230100 11009KT 6SM BR OVC010
     FM230400 13009KT 4SM -DZ BR OVC008
     FM230700 16008KT 2SM -RA BR OVC005=

USA.gov is the U.S. government's official web portal to all federal, state and local government web resources and services.